Koninklijk Nederlands Meteorologisch Instituut; Ministerie van Verkeer en Waterstaat

 
Weer
Nederlandse vliegveldverwachtingen (TAF)
ZCZC
FT221100 EHAM     AMSTERDAM/SCHIPHOL   NLD   -3 m.
TAF EHAM 221112Z 2212/2318 34014KT 9999 FEW035 SCT045
    BECMG 2216/2219 31004KT
    BECMG 2310/2313 25010KT=

ZCZC
FT221100 EHGG     GRONINGEN/EELDE   NLD   5 m.
TAF EHGG 221122Z 2212/2318 33014KT 9999 SCT035
    BECMG 2217/2219 26006KT=

ZCZC
FT221100 EHRD     ROTTERDAM/THE HAGUE AIRPORT   NLD   -5 m.
TAF EHRD 221112Z 2212/2318 34014KT 9999 FEW035 SCT045
    BECMG 2216/2219 31004KT
    BECMG 2310/2313 25010KT=

ZCZC
FT221100 EHBK     MAASTRICHT/MAASTRICHT-AACHEN   NLD   114 m.
TAF EHBK 221122Z 2212/2318 32012KT 9999 SCT040
    PROB30 TEMPO 2212/2215 35015G25KT 7000 -SHRA SCT025TCU
    BECMG 2216/2218 28005KT
    PROB30 TEMPO 2300/2307 6000=

ZCZC
FT221100 EHEH     EINDHOVEN/EINDHOVEN   NLD   22 m.
TAF EHEH 221139Z 2212/2318 32015KT 9999 FEW030 BKN040
    BECMG 2216/2218 32008KT
    BECMG 2221/2223 27005KT=

ZCZC
FC221200 EHWO     WOENSDRECHT/WOENSDRECHT   NLD   19 m.
TAF EHWO 221200Z NIL=

ZCZC
FC221200 EHVK     VOLKEL/VOLKEL   NLD   21 m.
TAF EHVK 221200Z NIL=

ZCZC
FC221200 EHGR     GILZE-RIJEN/GILZE-RIJEN   NLD   14 m.
TAF EHGR 221234Z 2213/2301 33012G22KT 9999 FEW035 BKN040
    BECMG 2215/2217 33007KT=

ZCZC
FC221200 EHLW RRB LEEUWARDEN/LEEUWARDEN   NLD   1 m.
TAF EHLW 221307Z 2213/2301 34015G25KT 9999 SCT035
    BECMG 2220/2222 32005KT=

ZCZC
FC221300 EHKD     DE KOOY/DE KOOY   NLD   1 m.
TAF EHKD 221304Z 2213/2301 35012KT 9999 SCT035
    BECMG 2219/2221 35005KT=